Airfield :
LOGIN :

Register | Disclaimer

   EN    FR    IT 

 










Legend :    VFR   Marginal VFR   IFR   Intensive IFR   Very Intensive IFR
Visi :
Ceiling :
>= 8 km
>= 3000ft
5 to 8 km
1000 to 3000 ft
1500m to 5 km
500 to 1000 ft
800 to 1500m
200 to 500 ft
< 800m
< 200 ft
Symbols :   Thunderstorms  Fog  Heavy snow  Heavy precipitations  Wind > 20 kt
SIGMETs :     Misc.  Thunderstorms  Icing  Turbulence  Mountain Waves  Volcanic Ashes







- Airport Elevation : 75 ft
- IATA code : MRH


EGYM - RAF Marham

CURRENT METAR :
  • 150250Z AUTO 17006KT 8000 HZ OVC039/// 02/M02 Q1021

EXPIRED METARs :
  • 150150Z AUTO 16005KT 9000 HZ OVC044/// 02/M01 Q1022
  • 150050Z AUTO 16006KT 9999 OVC045/// 02/M01 Q1022

Expired Forecast.
No reported NOTAMs for that airfield.
1 SIGMET reported for the London FIR (EGTT) :
 
Severe turbulence
EGTT SIGMET 01 VALID 150400/150800 EGRR
EGTT LONDON FIR SEV TURB FCST W OF LINE N5500 W00156 - N4934 W00414 SFC/FL060 MOV E 10KT NC=



MET'MAP, your aeronautical weather chart ! - Copyright ORBIFLY December 2007 - Disclaimer

ORBIFLY MET'MAP TEAM :

Programming & Development : Alexandra Zaïnal
Concept & Development : Baudouin d'Aumeries
Co-Development & Prog : Marc-Olivier Méhu
Technical & hardware support : Manuel Goepfert

Contact : metmap@orbifly.com




SOURCES & CREDITS :

   NOAA